»·PEaware :: N716TS KDTA-KSLC

N716TS :: KDTA-KSLC

FLIGHT INFORMATION

Flight Status: Arrived
Operator: Privately registered:
United States
More flights under this callsign
Pilot: Martin A. (6413)
Aircraft: PIPER PA-31/31P NAVAJO CHIEFTAIN
(PA31)
More flights by this aircraft type
Origin: KDTA Delta Mun
United States
Destination: KSLC Salt Lake City Intl
United States
More flights between these airports :: More routes between these airports
Route: +FFU
File this flight plan on PilotEdge
Remarks:
Altitude:
(Current/Filed)
11,000ft
Speed:
(Current/Filed)
140kts
Departed: 21-Feb-17 05:05 PM
Arrived: 21-Feb-17 06:01 PM
Distance/Time
Traveled:
87nm/0:56
Distance/Time
To Go:
Arrived

Flight Plot

Page will automatically refresh every two minutes.


Map Options




Map Legend


Flown Route
Filed Route
Departure Airport
Arrival Airport
Navaid (VOR, NDB)
Fix

Horizontal Profiles

Position Reports

Time Latitude Longitude Heading Altitude Ground
Speed
21-Feb-17 16:57 39.385894 -112.512409 221 4756ft 0kts
21-Feb-17 16:58 39.385894 -112.512409 221 4756ft 0kts
21-Feb-17 16:59 39.385894 -112.512409 221 4756ft 0kts
21-Feb-17 17:00 39.385894 -112.512409 221 4756ft 0kts
21-Feb-17 17:01 39.385894 -112.512409 221 4756ft 0kts
21-Feb-17 17:02 39.385156 -112.512264 141 4756ft 9kts
21-Feb-17 17:03 39.385026 -112.510164 43 4758ft 17kts
21-Feb-17 17:04 39.388500 -112.505666 45 4759ft 20kts
21-Feb-17 17:05 39.390672 -112.502864 43 4758ft 9kts
21-Feb-17 17:06 39.383281 -112.502380 195 4926ft 78kts
21-Feb-17 17:07 39.364254 -112.506813 197 6112ft 87kts
21-Feb-17 17:08 39.344475 -112.502550 127 7217ft 130kts
21-Feb-17 17:09 39.338104 -112.462709 117 8248ft 140kts
21-Feb-17 17:10 39.340301 -112.422847 42 9212ft 165kts
21-Feb-17 17:11 39.375283 -112.397662 20 10307ft 164kts
21-Feb-17 17:12 39.410850 -112.373023 19 11402ft 165kts
21-Feb-17 17:13 39.443794 -112.349400 20 12393ft 165kts
21-Feb-17 17:14 39.476467 -112.327653 8 13089ft 176kts
21-Feb-17 17:15 39.518761 -112.308400 11 13076ft 221kts
21-Feb-17 17:16 39.566104 -112.285600 12 13072ft 236kts
21-Feb-17 17:17 39.613586 -112.262618 12 13070ft 237kts
21-Feb-17 17:18 39.662622 -112.238976 12 13071ft 237kts
21-Feb-17 17:19 39.711872 -112.215213 12 13070ft 238kts
21-Feb-17 17:20 39.760046 -112.191947 12 13066ft 238kts
21-Feb-17 17:21 39.813594 -112.166041 12 13059ft 238kts
21-Feb-17 17:22 39.869216 -112.139085 12 13049ft 239kts
21-Feb-17 17:23 39.914744 -112.116991 12 13043ft 239kts
21-Feb-17 17:24 39.960466 -112.094769 12 13043ft 239kts
21-Feb-17 17:25 40.009611 -112.070842 12 13047ft 239kts
21-Feb-17 17:26 40.055421 -112.048512 12 13048ft 239kts
21-Feb-17 17:27 40.097326 -112.028054 12 13048ft 239kts
21-Feb-17 17:28 40.139711 -112.007340 12 13041ft 238kts
21-Feb-17 17:29 40.180232 -111.999826 349 13042ft 224kts
21-Feb-17 17:30 40.221594 -111.999200 349 13042ft 224kts
21-Feb-17 17:31 40.263511 -111.998609 349 13042ft 224kts
21-Feb-17 17:32 40.305108 -111.998048 349 13042ft 224kts
21-Feb-17 17:33 40.345906 -111.997502 349 13037ft 225kts
21-Feb-17 17:34 40.385907 -111.997003 349 13024ft 225kts
21-Feb-17 17:35 40.427805 -111.996488 349 13011ft 225kts
21-Feb-17 17:36 40.470188 -111.996366 339 12988ft 219kts
21-Feb-17 17:37 40.509947 -112.006109 338 12983ft 218kts
21-Feb-17 17:38 40.549101 -112.014094 338 12619ft 220kts
21-Feb-17 17:39 40.588444 -112.022613 339 11922ft 218kts
21-Feb-17 17:40 40.627579 -112.037109 339 11206ft 225kts
21-Feb-17 17:41 40.670838 -112.056144 337 10627ft 225kts
21-Feb-17 17:42 40.712599 -112.074591 338 10256ft 219kts
21-Feb-17 17:43 40.753301 -112.092576 338 9955ft 219kts
21-Feb-17 17:44 40.796848 -112.111217 341 9977ft 226kts
21-Feb-17 17:44 40.837462 -112.111921 357 9977ft 229kts
21-Feb-17 17:46 40.887469 -112.106356 358 9980ft 227kts
21-Feb-17 17:47 40.930331 -112.098323 359 9990ft 222kts
21-Feb-17 17:48 40.974043 -112.089903 351 9964ft 215kts
21-Feb-17 17:49 41.017934 -112.088356 350 9200ft 189kts
21-Feb-17 17:50 41.055246 -112.086756 349 8461ft 180kts
21-Feb-17 17:51 41.091728 -112.080814 31 7705ft 202kts
21-Feb-17 17:52 41.089144 -112.029611 129 7210ft 205kts
21-Feb-17 17:52 41.064900 -111.986234 129 7064ft 211kts
21-Feb-17 17:53 41.030360 -111.952735 202 7073ft 190kts
21-Feb-17 17:55 40.977195 -111.961251 192 7056ft 175kts
21-Feb-17 17:56 40.931650 -111.962096 190 6810ft 185kts
21-Feb-17 17:57 40.895919 -111.961990 194 6144ft 141kts
21-Feb-17 17:57 40.871905 -111.961859 193 5692ft 127kts
21-Feb-17 17:58 40.844340 -111.962095 194 5186ft 127kts
21-Feb-17 17:59 40.817198 -111.962021 195 4636ft 122kts
21-Feb-17 18:00 40.792429 -111.961934 190 4225ft 105kts
21-Feb-17 18:01 40.781526 -111.962330 121 4223ft 4kts
21-Feb-17 18:02 40.782429 -111.960560 85 4222ft 19kts
21-Feb-17 18:03 40.779585 -111.958909 182 4223ft 14kts
21-Feb-17 18:04 40.777155 -111.958783 172 4223ft 0kts
21-Feb-17 18:05 40.777155 -111.958783 172 4223ft 0kts

Navigation Log

Ident Type
Flight plan parsing failed, navigation log unavailable